Time;durP1;ratioP1;P1;durP2;ratioP2;P2;SDS_P1;SDS_P2;PMS_P1;PMS_P2;Temp;Humidity;BMP_temperature;BMP_pressure;BME280_temperature;BME280_humidity;BME280_pressure;Samples;Min_cycle;Max_cycle;Signal;HPM_P1;HPM_P2
2022/05/04 00:00:23;;;;;;;13.68;5.15;;;;;;;7.79;77.86;101942.28;4975000;28;20057;-68
2022/05/04 00:02:48;;;;;;;11.23;4.45;;;;;;;7.86;77.35;101944.72;4975462;28;20050;-68
2022/05/04 00:05:14;;;;;;;17.08;5.40;;;;;;;7.89;76.64;101936.69;4974583;28;20080;-68
2022/05/04 00:07:39;;;;;;;10.88;4.35;;;;;;;7.89;77.25;101942.84;4975599;28;20072;-68
2022/05/04 00:10:06;;;;;;;11.18;5.22;;;;;;;7.89;77.07;101928.72;4975013;28;20034;-69
2022/05/04 00:12:33;;;;;;;14.63;5.30;;;;;;;7.85;77.59;101940.34;4975195;28;20108;-69
2022/05/04 00:14:58;;;;;;;15.55;5.13;;;;;;;7.93;76.33;101930.31;4974548;28;20044;-69
2022/05/04 00:17:24;;;;;;;8.20;4.65;;;;;;;7.94;76.49;101932.94;4974074;28;20589;-68
2022/05/04 00:19:49;;;;;;;10.35;4.60;;;;;;;7.92;76.78;101937.41;4974423;28;20046;-68
2022/05/04 00:22:19;;;;;;;11.50;4.72;;;;;;;7.98;76.06;101941.63;4959234;28;20054;-68
2022/05/04 00:24:45;;;;;;;19.67;5.15;;;;;;;8.08;75.88;101929.78;4954767;28;20086;-68
2022/05/04 00:27:11;;;;;;;12.48;4.55;;;;;;;7.95;76.03;101931.13;4963628;28;20116;-68
2022/05/04 00:29:36;;;;;;;16.38;4.85;;;;;;;7.99;75.53;101935.44;4957029;28;20045;-68
2022/05/04 00:32:02;;;;;;;14.05;4.20;;;;;;;7.93;75.45;101928.56;4973769;28;20100;-68
2022/05/04 00:34:27;;;;;;;11.68;5.15;;;;;;;8.02;75.11;101927.34;4974379;28;20167;-69
2022/05/04 00:36:53;;;;;;;10.38;3.85;;;;;;;8.00;74.56;101927.41;4974654;28;20045;-68
2022/05/04 00:39:18;;;;;;;10.65;4.05;;;;;;;8.04;74.72;101928.16;4973866;28;20173;-68
2022/05/04 00:41:44;;;;;;;12.57;4.72;;;;;;;8.05;74.96;101921.94;4956078;28;20154;-69
2022/05/04 00:44:09;;;;;;;14.10;4.32;;;;;;;7.95;74.75;101925.81;4974253;28;20062;-69
2022/05/04 00:46:35;;;;;;;19.48;5.15;;;;;;;7.98;74.63;101921.28;4974468;28;20049;-69
2022/05/04 00:49:01;;;;;;;11.55;4.82;;;;;;;8.00;74.02;101918.56;4974751;28;20045;-68
2022/05/04 00:51:27;;;;;;;14.52;4.32;;;;;;;7.89;74.36;101918.94;4974966;28;20049;-68
2022/05/04 00:53:53;;;;;;;7.97;3.97;;;;;;;7.89;74.64;101921.59;4974520;28;20450;-69
2022/05/04 00:56:19;;;;;;;10.80;3.85;;;;;;;7.94;75.04;101924.09;4973767;28;20043;-68
2022/05/04 00:58:57;;;;;;;11.60;4.32;;;;;;;7.89;74.60;101924.25;4977962;28;20325;-68
2022/05/04 01:01:27;;;;;;;11.52;4.40;;;;;;;7.87;75.61;101925.22;4981372;28;20046;-69
2022/05/04 01:03:57;;;;;;;14.18;4.85;;;;;;;8.00;74.74;101923.88;4981515;28;20059;-68
2022/05/04 01:06:23;;;;;;;14.35;4.32;;;;;;;8.15;73.48;101936.63;4980680;28;20053;-69
2022/05/04 01:08:50;;;;;;;14.18;5.53;;;;;;;8.01;73.72;101934.44;4963552;28;20065;-69
2022/05/04 01:11:16;;;;;;;9.93;3.97;;;;;;;8.20;73.09;101937.31;4979754;28;20046;-68
2022/05/04 01:13:42;;;;;;;10.70;4.25;;;;;;;8.04;73.94;101939.66;4980966;28;20052;-69
2022/05/04 01:16:07;;;;;;;9.15;3.78;;;;;;;8.03;74.29;101931.72;4962360;28;20806;-68
2022/05/04 01:18:32;;;;;;;7.15;4.40;;;;;;;7.98;74.18;101934.56;4980861;28;20853;-68
2022/05/04 01:20:58;;;;;;;7.80;4.20;;;;;;;8.03;73.79;101929.06;4977382;28;20051;-68
2022/05/04 01:23:25;;;;;;;10.25;4.55;;;;;;;7.95;74.88;101928.47;4961705;28;20043;-68
2022/05/04 01:25:53;;;;;;;12.00;4.25;;;;;;;7.94;74.59;101924.09;4961128;28;20146;-68
2022/05/04 01:28:19;;;;;;;9.00;4.57;;;;;;;7.96;74.74;101930.22;4942886;28;20133;-69
2022/05/04 01:30:44;;;;;;;12.20;4.50;;;;;;;7.94;75.34;101932.06;4960649;28;20787;-68
2022/05/04 01:33:10;;;;;;;13.20;4.47;;;;;;;8.00;74.33;101923.88;4960788;28;20053;-69
2022/05/04 01:35:35;;;;;;;11.15;4.88;;;;;;;8.12;73.79;101933.19;4960286;28;20110;-68
2022/05/04 01:38:01;;;;;;;15.55;5.13;;;;;;;8.06;75.77;101926.31;4960778;28;20113;-68
2022/05/04 01:40:26;;;;;;;8.05;3.92;;;;;;;7.99;74.72;101917.69;4961621;28;20096;-69
2022/05/04 01:42:52;;;;;;;18.80;4.68;;;;;;;7.89;73.83;101921.59;4979995;28;20056;-69
2022/05/04 01:45:17;;;;;;;13.25;4.57;;;;;;;7.91;73.15;101919.75;4962347;28;20157;-69
2022/05/04 01:47:48;;;;;;;18.23;4.72;;;;;;;7.95;73.20;101921.38;4980603;28;20042;-68
2022/05/04 01:50:13;;;;;;;8.43;3.78;;;;;;;7.88;73.47;101922.53;4979075;28;20039;-69
2022/05/04 01:52:39;;;;;;;8.73;3.97;;;;;;;7.79;73.82;101925.50;4980461;28;20069;-68
2022/05/04 01:55:06;;;;;;;9.82;3.95;;;;;;;7.78;74.54;101926.38;4979088;28;20041;-68
2022/05/04 01:57:31;;;;;;;7.72;4.18;;;;;;;7.66;74.56;101930.34;4980117;28;20042;-69
2022/05/04 01:59:57;;;;;;;19.35;4.85;;;;;;;7.68;74.43;101924.97;4980510;28;20085;-68
2022/05/04 02:02:23;;;;;;;13.25;4.20;;;;;;;7.73;73.06;101921.28;4980210;28;20058;-69
2022/05/04 02:04:50;;;;;;;11.75;4.30;;;;;;;7.58;74.93;101924.44;4980134;28;20118;-68
2022/05/04 02:07:16;;;;;;;10.77;4.88;;;;;;;7.61;74.38;101924.31;4979507;28;20049;-68
2022/05/04 02:09:41;;;;;;;10.93;4.43;;;;;;;7.64;74.15;101918.91;4978417;28;20051;-69
2022/05/04 02:12:07;;;;;;;12.45;3.88;;;;;;;7.61;73.73;101926.97;4976452;28;20433;-68
2022/05/04 02:14:33;;;;;;;14.13;4.78;;;;;;;7.55;74.36;101921.00;4976870;28;20046;-68
2022/05/04 02:16:59;;;;;;;15.88;4.30;;;;;;;7.60;74.23;101933.22;4959040;28;20073;-69
2022/05/04 02:19:25;;;;;;;13.65;4.45;;;;;;;7.58;74.13;101924.44;4977037;28;20046;-69
2022/05/04 02:21:50;;;;;;;12.85;5.72;;;;;;;7.52;74.77;101924.63;4966246;28;20097;-69
2022/05/04 02:24:15;;;;;;;10.63;4.30;;;;;;;7.52;74.59;101925.50;4939421;28;20042;-68
2022/05/04 02:26:41;;;;;;;8.88;3.95;;;;;;;7.43;74.64;101923.16;4958402;28;20832;-68
2022/05/04 02:29:06;;;;;;;11.57;4.53;;;;;;;7.55;74.85;101924.53;4957435;28;20047;-68
2022/05/04 02:31:32;;;;;;;11.10;4.05;;;;;;;7.40;75.02;101928.56;4957878;28;20043;-68
2022/05/04 02:33:57;;;;;;;14.02;4.53;;;;;;;7.35;75.89;101927.84;4957386;28;20047;-68
2022/05/04 02:39:07;;;;;;;13.15;5.18;;;;;;;7.48;75.05;101922.97;4964225;28;20391;-68
2022/05/04 02:41:32;;;;;;;12.90;4.65;;;;;;;7.40;75.47;101925.91;4976009;28;20026;-69
2022/05/04 02:43:58;;;;;;;12.55;4.60;;;;;;;7.47;75.23;101921.25;4975013;28;20054;-68
2022/05/04 02:46:28;;;;;;;11.82;4.53;;;;;;;7.43;75.40;101922.25;4958283;28;20050;-68
2022/05/04 02:48:53;;;;;;;14.98;5.15;;;;;;;7.40;75.55;101920.59;4976032;28;20034;-68
2022/05/04 02:51:19;;;;;;;13.98;4.60;;;;;;;7.36;75.32;101913.66;4976379;28;20085;-68
2022/05/04 02:53:44;;;;;;;10.00;4.13;;;;;;;7.42;74.40;101909.94;4959031;28;20042;-69
2022/05/04 02:56:11;;;;;;;16.30;4.57;;;;;;;7.34;75.32;101909.31;4975083;28;20046;-68
2022/05/04 02:58:36;;;;;;;8.85;4.40;;;;;;;7.28;75.36;101907.75;4976186;28;20050;-68
2022/05/04 03:04:08;;;;;;;7.72;3.83;;;;;;;7.34;74.41;101909.31;4976039;28;20050;-69
2022/05/04 03:06:34;;;;;;;8.85;3.97;;;;;;;7.24;74.72;101911.41;4976089;28;20468;-68
2022/05/04 03:09:00;;;;;;;16.83;4.13;;;;;;;7.17;74.53;101909.84;4976845;28;20042;-68
2022/05/04 03:14:10;;;;;;;7.88;4.15;;;;;;;7.12;75.55;101915.31;4976219;28;20057;-68
2022/05/04 03:16:36;;;;;;;12.90;4.40;;;;;;;7.34;74.42;101910.19;4976566;28;20064;-68
2022/05/04 03:19:05;;;;;;;7.57;3.80;;;;;;;7.16;74.82;101908.13;4976343;28;20100;-68
2022/05/04 03:21:30;;;;;;;12.02;4.68;;;;;;;7.12;76.09;101909.13;4967977;28;20043;-69
2022/05/04 03:23:56;;;;;;;11.93;4.25;;;;;;;7.06;75.06;101902.25;4940281;28;20054;-69
2022/05/04 03:26:21;;;;;;;6.72;3.97;;;;;;;7.05;76.37;101904.94;4956041;28;20118;-68
2022/05/04 03:28:47;;;;;;;15.68;4.68;;;;;;;7.12;76.11;101895.88;4957660;28;20878;-68
2022/05/04 03:31:12;;;;;;;18.00;4.88;;;;;;;7.02;75.71;101900.59;4957119;28;20853;-68
2022/05/04 03:33:38;;;;;;;14.40;3.78;;;;;;;7.10;76.43;101900.38;4957450;28;20046;-69
2022/05/04 03:36:04;;;;;;;11.05;4.55;;;;;;;7.07;75.74;101900.47;4956858;28;20074;-68
2022/05/04 03:38:29;;;;;;;9.00;3.83;;;;;;;6.97;76.24;101902.53;4961465;28;20054;-68
2022/05/04 03:40:54;;;;;;;12.82;4.25;;;;;;;7.01;76.40;101899.72;4976695;28;20049;-68
2022/05/04 03:43:20;;;;;;;10.57;3.97;;;;;;;7.16;75.84;101894.88;4976631;28;20046;-68
2022/05/04 03:45:46;;;;;;;14.15;4.18;;;;;;;6.94;76.49;101895.56;4976752;28;20057;-68
2022/05/04 03:48:12;;;;;;;14.70;4.78;;;;;;;6.85;77.52;101895.84;4976011;28;20919;-68
2022/05/04 03:50:37;;;;;;;10.05;4.38;;;;;;;6.96;76.78;101891.06;4977328;28;20284;-68
2022/05/04 03:53:02;;;;;;;16.25;4.65;;;;;;;6.88;76.86;101890.44;4976405;28;20501;-68
2022/05/04 03:55:28;;;;;;;10.68;4.57;;;;;;;6.80;77.53;101894.25;4976032;28;20085;-68
2022/05/04 03:57:53;;;;;;;9.52;4.97;;;;;;;6.83;77.61;101896.78;4977026;28;20101;-67
2022/05/04 04:00:19;;;;;;;12.75;3.83;;;;;;;7.00;76.89;101892.69;4958370;28;20671;-67
2022/05/04 04:02:45;;;;;;;11.05;5.43;;;;;;;7.03;76.55;101899.72;4959320;28;20039;-67
2022/05/04 04:05:10;;;;;;;9.13;3.85;;;;;;;6.88;77.11;101900.19;4975921;28;20593;-67
2022/05/04 04:07:36;;;;;;;14.68;4.63;;;;;;;7.01;76.43;101906.81;4976510;28;20050;-67
2022/05/04 04:10:01;;;;;;;14.80;4.82;;;;;;;6.87;76.86;101901.94;4975664;28;20054;-67
2022/05/04 04:12:27;;;;;;;19.17;4.75;;;;;;;6.73;77.80;101907.69;4959047;28;20038;-67
2022/05/04 04:14:52;;;;;;;12.85;4.22;;;;;;;6.83;76.63;101900.31;4976400;28;20105;-67
2022/05/04 04:17:18;;;;;;;9.65;4.45;;;;;;;6.87;77.08;101909.91;4957223;28;20132;-67
2022/05/04 04:19:43;;;;;;;19.40;5.03;;;;;;;7.09;75.65;101910.13;4957414;28;20526;-68
2022/05/04 04:22:08;;;;;;;8.60;4.60;;;;;;;6.87;77.46;101911.69;4975488;28;20038;-67
2022/05/04 04:24:34;;;;;;;9.80;3.67;;;;;;;6.84;77.16;101914.44;4976011;28;20798;-67
2022/05/04 04:26:59;;;;;;;11.20;4.75;;;;;;;6.80;76.20;101911.00;4976226;28;20065;-67
2022/05/04 04:29:25;;;;;;;11.30;5.13;;;;;;;6.81;76.05;101909.22;4975882;28;20034;-67
2022/05/04 04:31:50;;;;;;;12.80;4.70;;;;;;;6.83;76.34;101905.63;4975412;28;20050;-67
2022/05/04 04:34:16;;;;;;;12.13;4.47;;;;;;;6.83;76.28;101908.28;4973903;28;20053;-67
2022/05/04 04:36:43;;;;;;;8.77;3.85;;;;;;;6.83;76.59;101902.97;4975506;28;20038;-68
2022/05/04 04:39:09;;;;;;;19.30;4.75;;;;;;;6.90;77.54;101907.16;4964143;28;20129;-67
2022/05/04 04:41:34;;;;;;;10.43;4.97;;;;;;;7.05;76.36;101913.78;4955050;28;20035;-67
2022/05/04 04:44:00;;;;;;;18.20;4.68;;;;;;;7.00;75.30;101910.41;4954772;28;20229;-67
2022/05/04 04:46:25;;;;;;;13.15;5.15;;;;;;;7.05;75.34;101911.13;4946568;28;20205;-67
2022/05/04 04:48:51;;;;;;;9.20;4.22;;;;;;;7.01;75.11;101906.81;4972704;28;20778;-67
2022/05/04 04:51:16;;;;;;;12.77;4.50;;;;;;;7.08;76.03;101907.50;4956685;28;20050;-68
2022/05/04 04:53:42;;;;;;;13.73;4.20;;;;;;;7.09;75.62;101909.25;4973888;28;20050;-67
2022/05/04 04:56:08;;;;;;;14.02;5.35;;;;;;;7.12;74.96;101902.03;4974774;28;20050;-68
2022/05/04 04:58:33;;;;;;;11.73;3.85;;;;;;;7.31;74.78;101907.63;4973722;28;20104;-67
2022/05/04 05:00:59;;;;;;;12.23;4.72;;;;;;;7.38;74.29;101909.19;4975901;28;20038;-67
2022/05/04 05:03:24;;;;;;;13.27;4.65;;;;;;;7.23;75.01;101909.69;4975247;28;20038;-67
2022/05/04 05:05:50;;;;;;;7.97;4.10;;;;;;;7.38;74.28;101911.84;4974378;28;20081;-67
2022/05/04 05:08:15;;;;;;;11.73;4.80;;;;;;;7.37;74.28;101910.06;4972526;28;20285;-67
2022/05/04 05:10:40;;;;;;;14.23;4.45;;;;;;;7.83;73.11;101908.53;4973252;28;20515;-67
2022/05/04 05:13:06;;;;;;;11.23;4.95;;;;;;;7.54;73.63;101906.88;4954595;28;20046;-68
2022/05/04 05:18:21;;;;;;;7.93;3.92;;;;;;;7.75;73.14;101906.13;4955140;28;20054;-67
2022/05/04 05:20:46;;;;;;;9.52;4.63;;;;;;;8.06;71.36;101910.38;4974130;28;20117;-68
2022/05/04 05:23:12;;;;;;;13.65;5.15;;;;;;;7.98;71.51;101907.09;4956667;28;20050;-68
2022/05/04 05:25:37;;;;;;;12.93;4.95;;;;;;;8.47;70.50;101908.03;4973976;28;20038;-67
2022/05/04 05:28:03;;;;;;;10.50;4.10;;;;;;;8.68;69.15;101909.84;4972188;28;20030;-67
2022/05/04 05:30:29;;;;;;;18.30;4.55;;;;;;;9.36;67.17;101907.19;4956085;28;20038;-68
2022/05/04 05:32:54;;;;;;;15.18;4.57;;;;;;;9.37;67.64;101906.25;4969167;28;20042;-68
2022/05/04 05:35:20;;;;;;;7.78;4.03;;;;;;;9.50;66.79;101904.84;4972997;28;20069;-68
2022/05/04 05:37:46;;;;;;;15.75;4.13;;;;;;;9.17;67.20;101904.41;4973297;28;20506;-67
2022/05/04 05:40:12;;;;;;;10.45;3.83;;;;;;;9.17;66.85;101907.94;4972594;28;20077;-68
2022/05/04 05:42:37;;;;;;;10.95;4.68;;;;;;;8.97;67.55;101915.84;4973983;28;20833;-67
2022/05/04 05:45:03;;;;;;;11.15;4.35;;;;;;;9.50;66.19;101905.69;4956374;28;20055;-68
2022/05/04 05:47:28;;;;;;;11.90;4.28;;;;;;;10.07;65.61;101908.59;4977861;28;20030;-68
2022/05/04 05:49:53;;;;;;;9.93;4.75;;;;;;;9.64;66.09;101904.22;4978430;28;20830;-68
2022/05/04 05:52:19;;;;;;;15.00;4.38;;;;;;;9.39;67.23;101907.94;4976826;28;20733;-68
2022/05/04 05:54:44;;;;;;;6.13;3.92;;;;;;;9.37;66.88;101908.94;4978019;28;20057;-68
2022/05/04 05:57:10;;;;;;;12.90;4.57;;;;;;;9.44;66.71;101905.06;4959351;28;20053;-68
2022/05/04 05:59:35;;;;;;;13.93;4.57;;;;;;;9.81;64.80;101910.59;4960066;28;20669;-68
2022/05/04 06:02:01;;;;;;;9.52;4.55;;;;;;;9.82;63.74;101914.97;4978297;28;20046;-67
2022/05/04 06:04:27;;;;;;;7.70;3.70;;;;;;;9.63;65.83;101910.50;4978670;28;20034;-68
2022/05/04 06:06:53;;;;;;;7.13;3.92;;;;;;;9.89;64.71;101912.94;4980019;28;20904;-67
2022/05/04 06:09:18;;;;;;;10.25;4.70;;;;;;;9.79;65.92;101909.81;4978549;28;20077;-68
2022/05/04 06:11:43;;;;;;;10.82;3.58;;;;;;;10.05;64.71;101921.13;4977595;28;20035;-67
2022/05/04 06:14:10;;;;;;;8.77;4.38;;;;;;;10.86;61.37;101909.44;4976891;28;20686;-67
2022/05/04 06:16:36;;;;;;;7.65;3.85;;;;;;;10.66;61.88;101922.84;4976351;28;20740;-68
2022/05/04 06:19:01;;;;;;;7.47;4.32;;;;;;;11.28;59.84;101905.63;4975238;28;20128;-68
2022/05/04 06:21:27;;;;;;;8.93;4.07;;;;;;;11.97;58.33;101902.19;4941974;28;20069;-67
2022/05/04 06:23:52;;;;;;;13.40;4.15;;;;;;;12.05;57.81;101908.84;4977352;28;20038;-67
2022/05/04 06:26:20;;;;;;;9.15;3.90;;;;;;;11.69;57.85;101911.56;4976265;28;20038;-68
2022/05/04 06:28:47;;;;;;;10.65;4.38;;;;;;;11.89;57.77;101910.56;4977536;28;20058;-68
2022/05/04 06:34:10;;;;;;;12.95;4.50;;;;;;;11.86;57.15;101918.78;4976574;28;20046;-67
2022/05/04 06:36:37;;;;;;;8.05;4.30;;;;;;;12.49;56.87;101920.78;4976577;28;20073;-68
2022/05/04 06:39:03;;;;;;;10.90;3.63;;;;;;;12.36;55.08;101921.47;4975808;28;20411;-67
2022/05/04 06:41:28;;;;;;;9.10;3.75;;;;;;;12.50;54.15;101923.41;4975029;28;20039;-68
2022/05/04 06:43:54;;;;;;;7.40;3.22;;;;;;;11.75;56.55;101921.09;4974952;28;20046;-67
2022/05/04 06:46:19;;;;;;;8.45;3.80;;;;;;;12.08;55.77;101913.16;4974125;28;20153;-68
2022/05/04 06:48:48;;;;;;;11.40;4.43;;;;;;;11.88;55.68;101925.75;4975096;28;20050;-67
2022/05/04 06:51:13;;;;;;;20.27;4.63;;;;;;;12.76;54.26;101913.94;4974106;28;20042;-67
2022/05/04 06:53:39;;;;;;;9.73;3.65;;;;;;;12.86;53.12;101915.16;4975468;28;20035;-67
2022/05/04 06:56:04;;;;;;;9.85;3.83;;;;;;;12.63;54.76;101919.09;4973670;28;20042;-68
2022/05/04 06:58:30;;;;;;;11.63;3.83;;;;;;;12.67;53.41;101919.78;4974592;28;20077;-68
2022/05/04 07:00:55;;;;;;;10.77;3.53;;;;;;;12.78;54.86;101917.38;4974661;28;20070;-68
2022/05/04 07:03:21;;;;;;;6.47;3.63;;;;;;;13.00;55.83;101917.03;4975472;28;20372;-69
2022/05/04 07:05:47;;;;;;;9.98;3.65;;;;;;;13.27;53.62;101913.81;4975384;28;20105;-69
2022/05/04 07:08:13;;;;;;;8.55;3.60;;;;;;;13.32;53.42;101914.41;4975239;28;20053;-69
2022/05/04 07:10:38;;;;;;;10.00;3.47;;;;;;;13.12;52.49;101902.97;4974836;28;20046;-68
2022/05/04 07:13:04;;;;;;;13.63;4.50;;;;;;;13.12;54.42;101915.50;4974437;28;20049;-69
2022/05/04 07:15:29;;;;;;;7.03;3.58;;;;;;;13.40;55.11;101909.44;4976939;28;20050;-68
2022/05/04 07:17:55;;;;;;;7.18;4.03;;;;;;;13.50;52.93;101917.81;4958108;28;20050;-67
2022/05/04 07:20:21;;;;;;;13.68;3.95;;;;;;;13.04;52.54;101923.94;4975988;28;20050;-67
2022/05/04 07:22:46;;;;;;;12.65;4.47;;;;;;;13.43;52.34;101920.00;4977141;28;20113;-67
2022/05/04 07:25:12;;;;;;;13.57;3.53;;;;;;;14.11;53.40;101917.72;4977411;28;20042;-68
2022/05/04 07:27:37;;;;;;;9.52;3.33;;;;;;;13.68;51.79;101920.28;4975649;28;20038;-68
2022/05/04 07:30:03;;;;;;;8.88;3.55;;;;;;;13.06;51.41;101919.41;4974753;28;20377;-68
2022/05/04 07:32:29;;;;;;;11.38;4.47;;;;;;;13.70;52.89;101915.72;4954951;28;20039;-67
2022/05/04 07:34:54;;;;;;;8.85;3.88;;;;;;;13.15;52.27;101918.00;4953997;28;20132;-67
2022/05/04 07:37:20;;;;;;;11.65;3.63;;;;;;;14.57;48.70;101912.22;4973492;28;20034;-68
2022/05/04 07:42:29;;;;;;;13.02;4.30;;;;;;;13.93;51.10;101913.47;4974451;28;20050;-68
2022/05/04 07:45:01;;;;;;;10.18;3.80;;;;;;;14.83;51.57;101909.69;4957586;28;20045;-68
2022/05/04 07:47:28;;;;;;;6.72;3.63;;;;;;;14.80;49.55;101913.41;4957721;28;20042;-67
2022/05/04 07:49:54;;;;;;;20.25;4.00;;;;;;;14.27;50.12;101911.41;4976398;28;20077;-67
2022/05/04 07:52:20;;;;;;;13.27;4.30;;;;;;;14.91;48.54;101910.03;4970723;28;20943;-68
2022/05/04 07:54:45;;;;;;;11.98;4.43;;;;;;;14.28;54.22;101916.66;4967820;28;20034;-68
2022/05/04 07:57:11;;;;;;;10.18;3.97;;;;;;;14.75;48.23;101905.66;4974094;28;20041;-67
2022/05/04 07:59:37;;;;;;;13.70;3.65;;;;;;;14.74;48.23;101908.44;4974152;28;20435;-67
2022/05/04 08:04:49;;;;;;;5.65;3.03;;;;;;;14.97;48.15;101915.91;4974814;28;20944;-68
2022/05/04 08:07:16;;;;;;;6.95;3.10;;;;;;;14.76;48.33;101917.28;4973038;28;20034;-67
2022/05/04 08:09:41;;;;;;;12.85;3.92;;;;;;;14.87;49.33;101916.59;4973976;28;20515;-68
2022/05/04 08:12:08;;;;;;;7.95;3.30;;;;;;;15.24;47.32;101905.16;4965603;28;20043;-67
2022/05/04 08:14:35;;;;;;;7.22;3.42;;;;;;;14.92;49.08;101918.00;4956226;28;20053;-67
2022/05/04 08:17:00;;;;;;;11.30;4.55;;;;;;;15.40;46.70;101909.50;4956947;28;20589;-67
2022/05/04 08:19:26;;;;;;;13.20;3.08;;;;;;;15.51;45.91;101915.91;4957199;28;20157;-69
2022/05/04 08:21:52;;;;;;;10.38;3.85;;;;;;;15.73;47.26;101914.50;4967325;28;20853;-69
2022/05/04 08:24:18;;;;;;;10.75;3.72;;;;;;;15.66;47.85;101919.44;4975385;28;20042;-69
2022/05/04 08:26:43;;;;;;;4.82;3.28;;;;;;;15.37;50.62;101921.34;4957977;28;20061;-69
2022/05/04 08:29:09;;;;;;;6.47;3.45;;;;;;;15.23;46.22;101914.19;4958715;28;20042;-69
2022/05/04 08:31:34;;;;;;;8.60;3.38;;;;;;;15.84;46.23;101901.16;4975072;28;20049;-69
2022/05/04 08:34:00;;;;;;;9.30;3.05;;;;;;;15.76;47.42;101909.78;4974580;28;20052;-69
2022/05/04 08:36:27;;;;;;;7.53;3.88;;;;;;;15.73;48.78;101909.13;4975115;28;20034;-68
2022/05/04 08:38:52;;;;;;;9.40;4.03;;;;;;;15.70;47.60;101912.88;4967783;28;20038;-69
2022/05/04 08:41:18;;;;;;;11.32;3.85;;;;;;;15.84;45.70;101905.69;4954664;28;20080;-70
2022/05/04 08:43:44;;;;;;;6.57;3.53;;;;;;;15.80;48.17;101915.78;4955702;28;20897;-69
2022/05/04 08:46:13;;;;;;;11.38;3.58;;;;;;;14.92;48.46;101918.00;4954445;28;20093;-69
2022/05/04 08:48:40;;;;;;;17.63;4.65;;;;;;;15.67;45.31;101909.53;4954215;28;20046;-69
2022/05/04 08:51:07;;;;;;;11.80;4.40;;;;;;;15.71;45.97;101906.53;4954717;28;20138;-69
2022/05/04 08:53:34;;;;;;;7.93;3.75;;;;;;;16.33;48.07;101903.16;4955358;28;20149;-69
2022/05/04 08:56:00;;;;;;;9.88;3.95;;;;;;;16.56;44.83;101905.03;4973773;28;20038;-70
2022/05/04 08:58:26;;;;;;;10.48;4.25;;;;;;;16.10;46.54;101906.56;4973996;28;20069;-69
2022/05/04 09:00:51;;;;;;;8.80;4.18;;;;;;;14.81;50.45;101909.78;4974152;28;20066;-69
2022/05/04 09:03:18;;;;;;;9.10;3.97;;;;;;;15.41;47.27;101905.84;4974067;28;20042;-68
2022/05/04 09:05:48;;;;;;;8.05;4.03;;;;;;;16.06;46.97;101900.53;4956765;28;20452;-69
2022/05/04 09:08:14;;;;;;;8.82;4.07;;;;;;;15.87;45.74;101895.59;4973866;28;20042;-69
2022/05/04 09:10:44;;;;;;;8.75;3.70;;;;;;;16.29;47.54;101886.34;4974006;28;20046;-69
2022/05/04 09:13:10;;;;;;;7.15;3.20;;;;;;;16.67;43.30;101889.97;4972668;28;20070;-70
2022/05/04 09:15:37;;;;;;;8.50;3.70;;;;;;;16.42;45.97;101890.88;4955597;28;20131;-69
2022/05/04 09:18:10;;;;;;;12.77;3.80;;;;;;;16.47;44.98;101884.19;4972817;28;20158;-69
2022/05/04 09:20:52;;;;;;;8.93;4.00;;;;;;;16.81;45.62;101885.31;4976585;28;20042;-69
2022/05/04 09:23:21;;;;;;;7.15;4.15;;;;;;;16.38;45.92;101887.53;4977932;28;20057;-69
2022/05/04 09:25:49;;;;;;;7.72;4.43;;;;;;;14.13;49.30;101898.84;4978146;28;20042;-69
2022/05/04 09:28:14;;;;;;;8.93;4.07;;;;;;;14.42;50.08;101889.84;4959696;28;20042;-69
2022/05/04 09:30:44;;;;;;;13.38;4.70;;;;;;;13.89;49.58;101895.81;4978565;28;20112;-69
2022/05/04 09:33:11;;;;;;;8.40;4.50;;;;;;;15.21;53.54;101885.69;4977039;28;20531;-69
2022/05/04 09:35:36;;;;;;;7.55;3.63;;;;;;;15.86;49.09;101882.22;4977421;28;20088;-69
2022/05/04 09:46:39;;;;;;;9.02;4.25;;;;;;;14.24;50.32;101882.94;4976522;28;20054;-69
2022/05/04 09:49:32;;;;;;;8.77;5.10;;;;;;;14.58;51.53;101884.41;4976738;28;20042;-69
2022/05/04 09:52:02;;;;;;;10.30;4.22;;;;;;;15.15;46.94;101878.03;4971317;28;20046;-69
2022/05/04 09:54:27;;;;;;;8.73;3.90;;;;;;;15.51;46.62;101874.69;4941525;28;20136;-68
2022/05/04 09:56:57;;;;;;;15.02;4.70;;;;;;;15.12;48.42;101881.78;4976522;28;20042;-68
2022/05/04 09:59:30;;;;;;;9.45;3.67;;;;;;;15.91;48.19;101877.38;4976227;28;20345;-69
2022/05/04 10:01:58;;;;;;;12.65;4.43;;;;;;;16.36;47.43;101872.44;4975918;28;20045;-68
2022/05/04 10:04:24;;;;;;;6.93;4.35;;;;;;;15.78;44.48;101874.69;4976651;28;20061;-68
2022/05/04 10:06:51;;;;;;;11.45;4.63;;;;;;;16.13;45.94;101866.00;4975031;28;20047;-68
2022/05/04 10:09:17;;;;;;;11.52;4.68;;;;;;;16.40;45.89;101869.41;4940917;28;20054;-69
2022/05/04 10:11:43;;;;;;;8.70;4.13;;;;;;;15.78;46.71;101866.63;4974205;28;20276;-69
2022/05/04 10:14:15;;;;;;;6.38;3.95;;;;;;;15.13;50.42;101867.41;4956739;28;20034;-69
2022/05/04 10:17:17;;;;;;;7.82;4.72;;;;;;;15.07;48.69;101867.81;4975459;28;20046;-69
2022/05/04 10:19:53;;;;;;;7.50;4.22;;;;;;;14.73;50.43;101870.00;4940261;28;20046;-69
2022/05/04 10:22:29;;;;;;;7.68;4.90;;;;;;;14.81;48.26;101868.63;4955354;28;20157;-69
2022/05/04 10:24:58;;;;;;;9.50;4.93;;;;;;;14.81;50.21;101869.50;4974062;28;20043;-69
2022/05/04 10:27:28;;;;;;;8.18;4.45;;;;;;;15.03;49.15;101852.84;4956825;28;20726;-69
2022/05/04 10:32:47;;;;;;;5.85;3.78;;;;;;;15.07;51.41;101861.56;4974096;28;20210;-69
2022/05/04 10:35:34;;;;;;;11.43;4.78;;;;;;;15.38;49.98;101861.25;4955838;28;20116;-69
2022/05/04 10:38:00;;;;;;;11.85;4.28;;;;;;;15.20;49.71;101855.25;4974344;28;20065;-69
2022/05/04 10:40:26;;;;;;;5.60;3.45;;;;;;;15.85;46.78;101850.94;4935526;28;20792;-70
2022/05/04 10:42:56;;;;;;;7.57;3.97;;;;;;;15.76;46.04;101842.53;4954341;28;20886;-70
2022/05/04 10:45:30;;;;;;;10.93;4.75;;;;;;;16.14;46.80;101846.19;4954465;28;20051;-70
2022/05/04 10:48:27;;;;;;;8.57;3.97;;;;;;;15.53;48.33;101851.28;4970831;28;20874;-70
2022/05/04 10:50:55;;;;;;;9.13;4.15;;;;;;;15.25;51.22;101844.22;4972468;28;20786;-68
2022/05/04 10:53:24;;;;;;;11.77;4.93;;;;;;;15.86;46.98;101840.03;4956655;28;20793;-68
2022/05/04 10:56:01;;;;;;;6.63;4.18;;;;;;;15.98;51.18;101841.03;4973515;28;20042;-69
2022/05/04 10:58:49;;;;;;;7.43;3.95;;;;;;;15.77;47.62;101836.19;4956051;28;20038;-67
2022/05/04 11:01:20;;;;;;;10.43;4.38;;;;;;;16.34;45.19;101842.94;4972693;28;20124;-70
2022/05/04 11:04:22;;;;;;;8.18;4.50;;;;;;;16.92;42.68;101827.97;4974742;28;20834;-68
2022/05/04 11:07:07;;;;;;;8.68;4.32;;;;;;;16.44;45.04;101829.69;4922244;28;20054;-68
2022/05/04 11:09:42;;;;;;;12.27;4.40;;;;;;;15.66;44.75;101827.13;4973319;28;20046;-69
2022/05/04 11:12:10;;;;;;;8.30;4.47;;;;;;;15.11;46.14;101828.16;4973769;28;20049;-69
2022/05/04 11:14:36;;;;;;;8.23;4.03;;;;;;;15.77;46.37;101830.81;4974576;28;20046;-69
2022/05/04 11:17:08;;;;;;;7.95;4.45;;;;;;;15.83;49.32;101825.97;4973086;28;20064;-69
2022/05/04 11:19:34;;;;;;;8.32;4.32;;;;;;;16.38;45.57;101836.38;4973757;28;20133;-70
2022/05/04 11:22:01;;;;;;;10.85;4.60;;;;;;;15.65;48.15;101823.56;4973069;28;20030;-69
2022/05/04 11:24:28;;;;;;;9.50;4.38;;;;;;;15.57;45.09;101828.59;4973292;28;20058;-69
2022/05/04 11:26:55;;;;;;;11.45;4.40;;;;;;;17.06;43.89;101826.91;4973462;28;20053;-70
2022/05/04 11:29:26;;;;;;;6.28;4.32;;;;;;;16.76;48.43;101820.13;4974081;28;20030;-69
2022/05/04 11:31:59;;;;;;;8.13;4.32;;;;;;;15.91;47.95;101834.34;4976016;28;20073;-69
2022/05/04 11:34:31;;;;;;;11.18;4.07;;;;;;;16.12;48.06;101822.09;4974207;28;20827;-70
2022/05/04 11:37:01;;;;;;;8.10;5.10;;;;;;;16.61;46.60;101818.53;4955892;28;20050;-69
2022/05/04 11:39:29;;;;;;;8.90;4.15;;;;;;;17.66;44.53;101816.97;4952807;28;20131;-70
2022/05/04 11:41:56;;;;;;;8.05;3.92;;;;;;;17.32;42.42;101803.41;4972229;28;20042;-69
2022/05/04 11:44:23;;;;;;;12.52;4.43;;;;;;;17.41;41.64;101805.38;4972049;28;20076;-69
2022/05/04 11:47:08;;;;;;;12.98;4.88;;;;;;;17.15;44.03;101807.34;4973684;28;20129;-70
2022/05/04 11:49:36;;;;;;;10.15;4.50;;;;;;;16.70;44.67;101808.94;4939864;28;20817;-69
2022/05/04 11:52:04;;;;;;;8.85;4.57;;;;;;;16.54;46.22;101804.66;4954708;28;20487;-69
2022/05/04 11:54:29;;;;;;;9.60;4.63;;;;;;;17.19;45.72;101802.59;4971831;28;20853;-69